createdAt,value
2019-01-31T00:00:36.086Z,99013.89
2019-01-31T00:03:00.579Z,99013.41
2019-01-31T00:05:11.966Z,99012.53
2019-01-31T00:07:04.197Z,99011.60
2019-01-31T00:08:56.231Z,99012.97
2019-01-31T00:11:03.803Z,99015.62
2019-01-31T00:12:48.574Z,99012.19
2019-01-31T00:14:44.537Z,99008.80
2019-01-31T00:16:32.424Z,99002.11
2019-01-31T00:19:00.296Z,99009.31
2019-01-31T00:21:09.435Z,99007.50
2019-01-31T00:23:19.843Z,99000.81
2019-01-31T00:25:26.585Z,99000.71
2019-01-31T00:27:33.299Z,98995.20
2019-01-31T00:28:58.153Z,98999.78
2019-01-31T00:31:05.235Z,99002.75
2019-01-31T00:32:57.629Z,98994.71
2019-01-31T00:34:53.867Z,99002.26
2019-01-31T00:37:12.928Z,98998.19
2019-01-31T00:38:58.304Z,99002.33
2019-01-31T00:40:58.569Z,98998.66
2019-01-31T00:42:28.691Z,98995.22
2019-01-31T00:44:28.615Z,99001.50
2019-01-31T00:46:37.839Z,99000.23
2019-01-31T00:48:25.365Z,99000.77
2019-01-31T00:50:27.836Z,98997.88
2019-01-31T00:52:12.337Z,98998.25
2019-01-31T00:54:11.473Z,98996.52
2019-01-31T00:56:14.919Z,98999.92
2019-01-31T00:58:23.085Z,99003.15
2019-01-31T01:00:36.585Z,99002.75
2019-01-31T01:02:30.717Z,99005.67
2019-01-31T01:04:30.020Z,99008.98
2019-01-31T01:06:25.986Z,99005.62
2019-01-31T01:08:22.186Z,98998.88
2019-01-31T01:10:05.169Z,99002.99
2019-01-31T01:12:07.893Z,98998.84
2019-01-31T01:13:45.787Z,98997.13
2019-01-31T01:15:57.802Z,98996.77
2019-01-31T01:17:28.551Z,99004.67
2019-01-31T01:19:40.248Z,99001.33
2019-01-31T01:21:06.460Z,99003.47
2019-01-31T01:22:35.970Z,99012.74
2019-01-31T01:24:50.777Z,99009.42
2019-01-31T01:26:54.577Z,99012.36
2019-01-31T01:28:58.051Z,99011.91
2019-01-31T01:31:02.059Z,99009.34
2019-01-31T01:32:48.960Z,99010.63
2019-01-31T01:35:05.199Z,99019.86
2019-01-31T01:36:48.910Z,99014.34
2019-01-31T01:38:53.022Z,99014.42
2019-01-31T01:41:22.692Z,99021.91
2019-01-31T01:43:12.807Z,99018.59
2019-01-31T01:45:02.211Z,99027.89
2019-01-31T01:46:50.936Z,99026.16
2019-01-31T01:48:31.494Z,99024.42
2019-01-31T01:50:16.311Z,99027.85
2019-01-31T01:52:22.665Z,99032.89
2019-01-31T01:54:33.810Z,99038.39
2019-01-31T01:56:20.316Z,99035.86
2019-01-31T01:58:14.487Z,99040.55
2019-01-31T02:00:17.765Z,99045.16
2019-01-31T02:02:17.207Z,99043.80
2019-01-31T02:03:58.645Z,99045.13
2019-01-31T02:05:57.925Z,99042.63
2019-01-31T02:07:49.926Z,99044.28
2019-01-31T02:09:46.886Z,99044.33
2019-01-31T02:12:01.462Z,99050.16
2019-01-31T02:13:39.583Z,99053.09
2019-01-31T02:15:44.465Z,99048.48
2019-01-31T02:17:23.236Z,99052.70
2019-01-31T02:19:13.514Z,99056.14
2019-01-31T02:21:24.907Z,99054.83
2019-01-31T02:23:37.675Z,99053.62
2019-01-31T02:25:13.748Z,99059.03
2019-01-31T02:27:41.006Z,99059.88
2019-01-31T02:29:30.698Z,99064.55
2019-01-31T02:31:56.451Z,99058.66
2019-01-31T02:33:51.780Z,99063.72
2019-01-31T02:35:31.210Z,99062.45
2019-01-31T02:37:13.349Z,99064.63
2019-01-31T02:39:22.544Z,99066.67
2019-01-31T02:41:19.762Z,99067.16
2019-01-31T02:43:01.108Z,99057.43
2019-01-31T02:45:00.438Z,99067.16
2019-01-31T02:46:56.552Z,99073.47
2019-01-31T02:48:40.981Z,99073.07
2019-01-31T02:50:45.584Z,99069.68
2019-01-31T02:52:58.240Z,99073.92
2019-01-31T02:55:14.768Z,99080.23
2019-01-31T02:57:02.478Z,99075.64
2019-01-31T02:58:43.927Z,99081.50
2019-01-31T03:01:08.369Z,99081.53
2019-01-31T03:02:43.306Z,99084.48
2019-01-31T03:04:26.867Z,99081.97
2019-01-31T03:06:18.459Z,99087.45
2019-01-31T03:08:30.957Z,99091.64
2019-01-31T03:10:21.908Z,99085.34
2019-01-31T03:12:24.632Z,99089.11
2019-01-31T03:13:53.701Z,99091.23
2019-01-31T03:15:41.852Z,99089.18
2019-01-31T03:17:45.915Z,99093.77
2019-01-31T03:19:41.072Z,99094.16
2019-01-31T03:21:40.985Z,99093.35
2019-01-31T03:23:30.901Z,99095.03
2019-01-31T03:25:21.979Z,99100.08
2019-01-31T03:27:38.927Z,99100.51
2019-01-31T03:29:48.949Z,99093.77
2019-01-31T03:31:46.550Z,99095.05
2019-01-31T03:34:05.634Z,99098.36
2019-01-31T03:36:01.619Z,99091.64
2019-01-31T03:37:43.415Z,99092.91
2019-01-31T03:39:31.008Z,99097.20
2019-01-31T03:41:25.868Z,99095.98
2019-01-31T03:43:25.348Z,99099.41
2019-01-31T03:45:19.533Z,99098.59
2019-01-31T03:47:08.806Z,99101.16
2019-01-31T03:49:21.755Z,99102.88
2019-01-31T03:50:49.720Z,99105.91
2019-01-31T03:53:04.985Z,99105.11
2019-01-31T03:54:40.792Z,99116.85
2019-01-31T03:57:05.576Z,99116.11
2019-01-31T03:58:58.576Z,99114.41
2019-01-31T04:00:59.773Z,99121.53
2019-01-31T04:02:47.394Z,99120.25
2019-01-31T04:04:12.089Z,99119.80
2019-01-31T04:06:15.318Z,99122.73
2019-01-31T04:07:22.042Z,99121.43
2019-01-31T04:08:28.972Z,99128.12
2019-01-31T04:09:36.094Z,99125.17
2019-01-31T04:10:42.784Z,99130.21
2019-01-31T04:11:49.746Z,99131.45
2019-01-31T04:12:56.525Z,99125.52
2019-01-31T04:14:03.490Z,99129.22
2019-01-31T04:15:11.245Z,99131.71
2019-01-31T04:16:18.273Z,99140.52
2019-01-31T04:17:24.933Z,99129.56
2019-01-31T04:18:31.637Z,99132.13
2019-01-31T04:19:38.327Z,99137.54
2019-01-31T04:20:45.554Z,99130.80
2019-01-31T04:21:52.570Z,99132.42
2019-01-31T04:22:59.213Z,99137.90
2019-01-31T04:24:06.308Z,99136.25
2019-01-31T04:25:13.314Z,99140.42
2019-01-31T04:26:20.001Z,99139.52
2019-01-31T04:27:26.750Z,99137.80
2019-01-31T04:28:33.598Z,99143.25
2019-01-31T04:29:40.252Z,99133.16
2019-01-31T04:30:47.212Z,99138.14
2019-01-31T04:31:53.946Z,99137.67
2019-01-31T04:33:00.589Z,99140.17
2019-01-31T04:34:07.232Z,99135.11
2019-01-31T04:35:14.399Z,99141.89
2019-01-31T04:36:21.498Z,99141.92
2019-01-31T04:37:28.548Z,99149.94
2019-01-31T04:38:35.581Z,99152.06
2019-01-31T04:39:42.322Z,99148.28
2019-01-31T04:40:49.083Z,99152.05
2019-01-31T04:41:56.173Z,99151.61
2019-01-31T04:43:02.934Z,99145.70
2019-01-31T04:44:10.262Z,99146.56
2019-01-31T04:45:17.090Z,99144.85
2019-01-31T04:46:23.831Z,99143.98
2019-01-31T04:47:30.848Z,99143.58
2019-01-31T04:48:38.207Z,99146.94
2019-01-31T04:49:45.514Z,99141.52
2019-01-31T04:50:52.250Z,99143.98
2019-01-31T04:52:00.171Z,99143.16
2019-01-31T04:53:21.363Z,99141.91
2019-01-31T04:54:28.205Z,99145.23
2019-01-31T04:55:35.213Z,99146.50
2019-01-31T04:56:42.202Z,99149.06
2019-01-31T04:57:49.170Z,99149.06
2019-01-31T04:58:55.851Z,99142.72
2019-01-31T05:00:02.574Z,99150.21
2019-01-31T05:01:09.583Z,99150.59
2019-01-31T05:02:16.592Z,99145.21
2019-01-31T05:03:23.741Z,99149.80
2019-01-31T05:04:30.362Z,99150.72
2019-01-31T05:05:37.117Z,99152.42
2019-01-31T05:06:46.892Z,99154.11
2019-01-31T05:07:53.720Z,99156.19
2019-01-31T05:09:00.703Z,99149.86
2019-01-31T05:10:10.603Z,99146.96
2019-01-31T05:11:17.650Z,99149.94
2019-01-31T05:12:24.313Z,99149.92
2019-01-31T05:13:31.085Z,99151.19
2019-01-31T05:14:37.825Z,99150.38
2019-01-31T05:15:44.649Z,99155.09
2019-01-31T05:16:51.374Z,99150.94
2019-01-31T05:17:58.420Z,99151.73
2019-01-31T05:19:05.301Z,99155.06
2019-01-31T05:20:16.101Z,99150.91
2019-01-31T05:21:23.489Z,99152.98
2019-01-31T05:22:30.486Z,99150.11
2019-01-31T05:23:37.463Z,99151.77
2019-01-31T05:24:44.186Z,99153.83
2019-01-31T05:25:51.033Z,99149.66
2019-01-31T05:26:57.779Z,99152.64
2019-01-31T05:28:04.442Z,99155.55
2019-01-31T05:29:11.199Z,99153.02
2019-01-31T05:30:18.648Z,99161.04
2019-01-31T05:31:25.301Z,99157.69
2019-01-31T05:32:32.720Z,99161.45
2019-01-31T05:33:39.395Z,99157.23
2019-01-31T05:34:46.753Z,99158.95
2019-01-31T05:35:54.151Z,99154.30
2019-01-31T05:37:00.900Z,99159.39
2019-01-31T05:38:08.121Z,99157.67
2019-01-31T05:39:15.196Z,99158.43
2019-01-31T05:40:22.252Z,99162.27
2019-01-31T05:41:28.897Z,99166.05
2019-01-31T05:42:35.979Z,99154.81
2019-01-31T05:43:43.099Z,99156.09
2019-01-31T05:44:50.132Z,99162.02
2019-01-31T05:45:57.112Z,99161.52
2019-01-31T05:47:03.831Z,99159.86
2019-01-31T05:48:11.098Z,99165.36
2019-01-31T05:49:17.863Z,99168.78
2019-01-31T05:50:24.954Z,99161.22
2019-01-31T05:51:31.588Z,99167.98
2019-01-31T05:52:38.336Z,99168.42
2019-01-31T05:53:45.034Z,99174.73
2019-01-31T05:54:52.425Z,99180.16
2019-01-31T05:55:59.356Z,99178.91
2019-01-31T05:57:06.406Z,99180.15
2019-01-31T05:58:13.094Z,99186.81
2019-01-31T05:59:19.774Z,99177.98
2019-01-31T06:00:33.005Z,99181.38
2019-01-31T06:01:40.405Z,99186.80
2019-01-31T06:02:48.136Z,99190.14
2019-01-31T06:03:55.120Z,99188.08
2019-01-31T06:05:02.299Z,99192.28
2019-01-31T06:06:09.447Z,99188.47
2019-01-31T06:07:16.183Z,99186.70
2019-01-31T06:08:22.893Z,99192.98
2019-01-31T06:09:29.876Z,99194.67
2019-01-31T06:10:36.575Z,99196.06
2019-01-31T06:11:43.286Z,99199.86
2019-01-31T06:12:49.975Z,99200.72
2019-01-31T06:13:56.677Z,99200.28
2019-01-31T06:15:03.763Z,99201.92
2019-01-31T06:16:10.647Z,99199.47
2019-01-31T06:17:17.692Z,99206.59
2019-01-31T06:18:24.677Z,99201.13
2019-01-31T06:19:31.712Z,99206.16
2019-01-31T06:20:38.373Z,99207.02
2019-01-31T06:21:45.654Z,99207.86
2019-01-31T06:22:52.773Z,99209.11
2019-01-31T06:23:59.479Z,99204.91
2019-01-31T06:25:07.182Z,99208.77
2019-01-31T06:26:13.925Z,99205.88
2019-01-31T06:27:20.685Z,99201.27
2019-01-31T06:28:27.322Z,99212.18
2019-01-31T06:29:34.384Z,99202.99
2019-01-31T06:30:41.396Z,99201.72
2019-01-31T06:31:48.481Z,99207.16
2019-01-31T06:32:55.213Z,99206.31
2019-01-31T06:34:01.891Z,99207.13
2019-01-31T06:35:10.066Z,99202.91
2019-01-31T06:36:17.286Z,99204.59
2019-01-31T06:37:23.937Z,99201.67
2019-01-31T06:38:31.013Z,99201.67
2019-01-31T06:39:38.013Z,99207.52
2019-01-31T06:40:44.690Z,99206.25
2019-01-31T06:41:51.488Z,99205.42
2019-01-31T06:42:59.110Z,99202.91
2019-01-31T06:44:06.201Z,99200.84
2019-01-31T06:45:17.168Z,99201.22
2019-01-31T06:46:24.246Z,99203.73
2019-01-31T06:47:31.466Z,99194.55
2019-01-31T06:48:38.131Z,99198.33
2019-01-31T06:49:45.176Z,99195.81
2019-01-31T06:50:52.224Z,99195.83
2019-01-31T06:51:58.957Z,99195.47
2019-01-31T06:53:05.635Z,99197.09
2019-01-31T06:54:12.703Z,99195.81
2019-01-31T06:55:20.072Z,99199.59
2019-01-31T06:56:26.762Z,99198.77
2019-01-31T06:57:33.791Z,99195.52
2019-01-31T06:58:41.160Z,99199.67
2019-01-31T06:59:48.025Z,99200.48
2019-01-31T07:00:54.759Z,99199.67
2019-01-31T07:02:01.459Z,99196.77
2019-01-31T07:03:08.163Z,99203.00
2019-01-31T07:04:15.252Z,99200.48
2019-01-31T07:05:22.047Z,99203.42
2019-01-31T07:06:29.128Z,99200.47
2019-01-31T07:07:35.802Z,99205.07
2019-01-31T07:08:42.875Z,99206.77
2019-01-31T07:09:49.526Z,99210.93
2019-01-31T07:10:56.450Z,99211.36
2019-01-31T07:12:03.187Z,99219.73
2019-01-31T07:13:09.880Z,99219.73
2019-01-31T07:14:16.930Z,99219.35
2019-01-31T07:15:23.969Z,99219.83
2019-01-31T07:16:31.174Z,99225.23
2019-01-31T07:17:37.942Z,99226.09
2019-01-31T07:18:44.641Z,99220.19
2019-01-31T07:19:51.316Z,99231.45
2019-01-31T07:20:58.341Z,99231.05
2019-01-31T07:22:05.021Z,99225.58
2019-01-31T07:23:11.735Z,99224.75
2019-01-31T07:24:18.894Z,99226.91
2019-01-31T07:25:27.238Z,99229.02
2019-01-31T07:26:34.209Z,99226.49
2019-01-31T07:27:41.225Z,99234.13
2019-01-31T07:28:47.951Z,99231.30
2019-01-31T07:29:54.654Z,99232.95
2019-01-31T07:31:01.368Z,99228.36
2019-01-31T07:32:08.024Z,99232.66
2019-01-31T07:33:14.764Z,99239.33
2019-01-31T07:34:21.755Z,99236.41
2019-01-31T07:35:28.694Z,99245.66
2019-01-31T07:36:35.799Z,99241.02
2019-01-31T07:37:42.557Z,99243.96
2019-01-31T07:38:49.336Z,99239.31
2019-01-31T07:39:56.068Z,99239.26
2019-01-31T07:41:02.739Z,99241.31
2019-01-31T07:42:09.531Z,99242.12
2019-01-31T07:43:16.530Z,99245.06
2019-01-31T07:44:23.542Z,99246.33
2019-01-31T07:45:32.337Z,99238.70
2019-01-31T07:46:39.026Z,99245.45
2019-01-31T07:47:45.804Z,99246.77
2019-01-31T07:48:53.286Z,99249.31
2019-01-31T07:49:59.953Z,99253.17
2019-01-31T07:51:06.988Z,99255.31
2019-01-31T07:52:14.068Z,99255.77
2019-01-31T07:53:21.529Z,99265.38
2019-01-31T07:54:28.220Z,99259.50
2019-01-31T07:55:35.233Z,99255.73
2019-01-31T07:56:42.278Z,99260.78
2019-01-31T07:57:49.313Z,99262.85
2019-01-31T07:58:56.438Z,99262.47
2019-01-31T08:00:03.152Z,99267.57
2019-01-31T08:01:09.880Z,99263.75
2019-01-31T08:02:16.950Z,99270.48
2019-01-31T08:03:23.611Z,99265.81
2019-01-31T08:04:30.663Z,99272.48
2019-01-31T08:05:37.331Z,99272.05
2019-01-31T08:06:46.335Z,99269.53
2019-01-31T08:07:55.074Z,99267.50
2019-01-31T08:09:01.724Z,99270.40
2019-01-31T08:10:13.492Z,99272.13
2019-01-31T08:11:20.536Z,99276.27
2019-01-31T08:12:27.519Z,99274.56
2019-01-31T08:13:34.211Z,99269.51
2019-01-31T08:14:41.278Z,99277.45
2019-01-31T08:15:48.585Z,99277.01
2019-01-31T08:16:55.731Z,99277.81
2019-01-31T08:18:02.701Z,99279.46
2019-01-31T08:19:09.395Z,99277.37
2019-01-31T08:20:17.831Z,99277.31
2019-01-31T08:21:24.583Z,99278.94
2019-01-31T08:22:31.255Z,99281.50
2019-01-31T08:23:38.271Z,99275.59
2019-01-31T08:24:45.383Z,99283.16
2019-01-31T08:25:52.158Z,99280.77
2019-01-31T08:26:58.978Z,99284.56
2019-01-31T08:28:07.053Z,99288.84
2019-01-31T08:29:13.762Z,99287.60
2019-01-31T08:30:33.491Z,99290.98
2019-01-31T08:31:40.405Z,99286.70
2019-01-31T08:32:47.618Z,99290.41
2019-01-31T08:33:54.596Z,99288.70
2019-01-31T08:35:01.346Z,99295.44
2019-01-31T08:36:08.111Z,99295.82
2019-01-31T08:37:14.867Z,99292.48
2019-01-31T08:38:21.506Z,99293.73
2019-01-31T08:39:28.452Z,99297.09
2019-01-31T08:40:35.655Z,99297.96
2019-01-31T08:41:42.809Z,99300.48
2019-01-31T08:42:49.887Z,99296.70
2019-01-31T08:43:56.967Z,99299.66
2019-01-31T08:45:04.146Z,99297.97
2019-01-31T08:46:10.880Z,99292.10
2019-01-31T08:47:17.619Z,99296.70
2019-01-31T08:48:24.667Z,99298.33
2019-01-31T08:49:31.404Z,99297.05
2019-01-31T08:50:38.583Z,99298.26
2019-01-31T08:51:45.738Z,99299.05
2019-01-31T08:52:52.811Z,99295.21
2019-01-31T08:53:59.478Z,99302.31
2019-01-31T08:55:07.176Z,99299.44
2019-01-31T08:56:13.905Z,99306.94
2019-01-31T08:57:20.655Z,99303.95
2019-01-31T08:58:27.361Z,99306.55
2019-01-31T08:59:34.059Z,99317.00
2019-01-31T09:00:40.798Z,99312.16
2019-01-31T09:01:47.502Z,99313.46
2019-01-31T09:02:54.205Z,99313.00
2019-01-31T09:04:00.887Z,99318.05
2019-01-31T09:05:08.552Z,99317.30
2019-01-31T09:06:15.253Z,99308.17
2019-01-31T09:07:22.230Z,99312.82
2019-01-31T09:08:29.826Z,99308.22
2019-01-31T09:09:36.603Z,99311.55
2019-01-31T09:10:43.793Z,99307.30
2019-01-31T09:11:50.874Z,99312.38
2019-01-31T09:12:58.202Z,99308.99
2019-01-31T09:14:05.178Z,99312.76
2019-01-31T09:15:15.150Z,99313.63
2019-01-31T09:16:22.186Z,99313.19
2019-01-31T09:17:29.207Z,99312.75
2019-01-31T09:18:35.935Z,99314.89
2019-01-31T09:19:42.729Z,99312.45
2019-01-31T09:21:06.045Z,99312.44
2019-01-31T09:22:27.827Z,99321.58
2019-01-31T09:24:32.575Z,99322.84
2019-01-31T09:26:31.877Z,99319.05
2019-01-31T09:28:24.193Z,99317.80
2019-01-31T09:30:12.971Z,99319.88
2019-01-31T09:32:24.199Z,99321.63
2019-01-31T09:34:48.295Z,99319.92
2019-01-31T09:37:10.044Z,99323.16
2019-01-31T09:39:18.241Z,99321.58
2019-01-31T09:41:12.865Z,99326.23
2019-01-31T09:43:21.504Z,99323.26
2019-01-31T09:45:21.212Z,99323.32
2019-01-31T09:47:36.192Z,99325.39
2019-01-31T09:49:54.022Z,99328.31
2019-01-31T09:51:48.728Z,99325.84
2019-01-31T09:53:51.248Z,99330.05
2019-01-31T09:56:05.105Z,99332.58
2019-01-31T09:58:12.950Z,99335.13
2019-01-31T10:00:27.240Z,99340.56
2019-01-31T10:02:31.274Z,99340.98
2019-01-31T10:04:31.570Z,99338.86
2019-01-31T10:06:50.171Z,99333.73
2019-01-31T10:09:16.148Z,99335.41
2019-01-31T10:11:10.790Z,99340.88
2019-01-31T10:13:07.855Z,99332.88
2019-01-31T10:15:08.793Z,99337.01
2019-01-31T10:17:08.766Z,99342.34
2019-01-31T10:19:23.252Z,99345.69
2019-01-31T10:21:23.464Z,99335.20
2019-01-31T10:23:15.952Z,99339.81
2019-01-31T10:25:42.451Z,99342.77
2019-01-31T10:28:07.516Z,99346.94
2019-01-31T10:30:20.133Z,99339.59
2019-01-31T10:32:02.809Z,99348.68
2019-01-31T10:34:16.905Z,99343.65
2019-01-31T10:36:13.048Z,99348.16
2019-01-31T10:37:57.560Z,99346.45
2019-01-31T10:40:03.748Z,99349.86
2019-01-31T10:41:53.096Z,99351.03
2019-01-31T10:43:54.739Z,99348.75
2019-01-31T10:46:19.927Z,99353.11
2019-01-31T10:48:17.462Z,99341.98
2019-01-31T10:50:24.985Z,99345.94
2019-01-31T10:52:22.743Z,99348.20
2019-01-31T10:54:52.175Z,99347.86
2019-01-31T10:56:44.228Z,99345.01
2019-01-31T10:58:52.220Z,99346.12
2019-01-31T11:00:40.183Z,99345.40
2019-01-31T11:03:11.210Z,99339.94
2019-01-31T11:05:12.756Z,99338.14
2019-01-31T11:07:00.700Z,99340.05
2019-01-31T11:08:58.009Z,99339.88
2019-01-31T11:11:06.325Z,99336.48
2019-01-31T11:13:00.888Z,99329.02
2019-01-31T11:15:10.562Z,99332.79
2019-01-31T11:17:32.471Z,99336.07
2019-01-31T11:19:25.667Z,99332.37
2019-01-31T11:21:25.074Z,99331.44
2019-01-31T11:23:58.408Z,99329.39
2019-01-31T11:25:43.582Z,99331.48
2019-01-31T11:27:58.380Z,99324.00
2019-01-31T11:30:00.051Z,99326.05
2019-01-31T11:31:56.752Z,99319.23
2019-01-31T11:33:53.298Z,99327.22
2019-01-31T11:35:41.977Z,99325.81
2019-01-31T11:37:30.275Z,99326.20
2019-01-31T11:39:32.019Z,99327.00
2019-01-31T11:41:31.423Z,99326.41
2019-01-31T11:43:35.212Z,99329.02
2019-01-31T11:45:44.300Z,99331.31
2019-01-31T11:47:36.645Z,99329.36
2019-01-31T11:49:23.693Z,99336.36
2019-01-31T11:51:27.071Z,99336.16
2019-01-31T11:53:33.243Z,99336.13
2019-01-31T11:55:30.981Z,99332.39
2019-01-31T11:57:31.002Z,99327.61
2019-01-31T11:58:51.353Z,99337.95
2019-01-31T11:59:58.381Z,99331.42
2019-01-31T12:01:07.870Z,99325.59
2019-01-31T12:02:14.816Z,99329.58
2019-01-31T12:03:21.799Z,99325.94
2019-01-31T12:04:28.832Z,99323.34
2019-01-31T12:05:36.312Z,99324.55
2019-01-31T12:06:43.302Z,99319.52
2019-01-31T12:07:50.077Z,99323.78
2019-01-31T12:08:56.873Z,99321.73
2019-01-31T12:10:03.812Z,99321.48
2019-01-31T12:11:10.685Z,99318.52
2019-01-31T12:12:17.663Z,99317.80
2019-01-31T12:13:25.201Z,99326.55
2019-01-31T12:14:31.894Z,99317.23
2019-01-31T12:15:38.598Z,99323.81
2019-01-31T12:16:45.771Z,99320.35
2019-01-31T12:17:52.501Z,99324.09
2019-01-31T12:18:59.596Z,99325.69
2019-01-31T12:20:08.174Z,99323.03
2019-01-31T12:21:15.363Z,99324.52
2019-01-31T12:22:22.013Z,99317.59
2019-01-31T12:23:28.678Z,99321.23
2019-01-31T12:24:35.392Z,99319.81
2019-01-31T12:25:42.067Z,99315.09
2019-01-31T12:26:48.807Z,99317.09
2019-01-31T12:27:56.057Z,99311.57
2019-01-31T12:29:02.735Z,99310.64
2019-01-31T12:30:19.409Z,99311.44
2019-01-31T12:31:26.413Z,99309.66
2019-01-31T12:32:33.116Z,99311.75
2019-01-31T12:33:40.054Z,99306.61
2019-01-31T12:34:46.716Z,99306.95
2019-01-31T12:35:54.100Z,99304.73
2019-01-31T12:37:01.176Z,99306.03
2019-01-31T12:38:08.152Z,99306.63
2019-01-31T12:39:15.555Z,99304.02
2019-01-31T12:40:22.352Z,99293.80
2019-01-31T12:41:29.467Z,99295.09
2019-01-31T12:42:36.554Z,99298.86
2019-01-31T12:43:43.542Z,99297.98
2019-01-31T12:44:50.237Z,99292.78
2019-01-31T12:45:56.899Z,99295.55
2019-01-31T12:47:03.546Z,99293.70
2019-01-31T12:48:10.221Z,99293.30
2019-01-31T12:49:17.283Z,99291.59
2019-01-31T12:50:28.224Z,99291.84
2019-01-31T12:51:36.006Z,99285.83
2019-01-31T12:52:43.184Z,99286.22
2019-01-31T12:53:50.229Z,99286.23
2019-01-31T12:54:57.028Z,99289.62
2019-01-31T12:56:03.715Z,99283.80
2019-01-31T12:57:10.751Z,99278.03
2019-01-31T12:58:19.070Z,99280.47
2019-01-31T12:59:26.121Z,99279.58
2019-01-31T13:00:32.922Z,99278.26
2019-01-31T13:01:40.311Z,99282.03
2019-01-31T13:02:47.380Z,99276.63
2019-01-31T13:03:54.206Z,99276.19
2019-01-31T13:05:00.919Z,99274.12
2019-01-31T13:06:08.162Z,99276.31
2019-01-31T13:07:15.550Z,99275.34
2019-01-31T13:08:22.733Z,99276.52
2019-01-31T13:09:29.434Z,99276.13
2019-01-31T13:10:36.081Z,99271.43
2019-01-31T13:11:43.504Z,99277.77
2019-01-31T13:12:51.086Z,99272.28
2019-01-31T13:13:58.432Z,99275.63
2019-01-31T13:15:05.913Z,99271.73
2019-01-31T13:16:12.839Z,99270.13
2019-01-31T13:17:20.184Z,99268.86
2019-01-31T13:18:27.021Z,99271.75
2019-01-31T13:19:33.657Z,99267.93
2019-01-31T13:20:40.396Z,99267.42
2019-01-31T13:21:47.357Z,99266.81
2019-01-31T13:22:58.955Z,99266.94
2019-01-31T13:24:06.342Z,99268.13
2019-01-31T13:25:14.097Z,99267.18
2019-01-31T13:26:21.009Z,99273.02
2019-01-31T13:27:28.125Z,99269.59
2019-01-31T13:28:35.167Z,99266.64
2019-01-31T13:29:41.864Z,99262.20
2019-01-31T13:30:48.636Z,99266.05
2019-01-31T13:31:55.374Z,99270.97
2019-01-31T13:33:02.031Z,99264.59
2019-01-31T13:34:09.115Z,99264.42
2019-01-31T13:35:16.346Z,99267.00
2019-01-31T13:36:23.143Z,99264.95
2019-01-31T13:37:29.831Z,99265.66
2019-01-31T13:38:36.521Z,99267.02
2019-01-31T13:39:43.277Z,99268.40
2019-01-31T13:40:50.246Z,99269.84
2019-01-31T13:41:57.209Z,99269.06
2019-01-31T13:43:04.198Z,99262.97
2019-01-31T13:44:11.278Z,99268.80
2019-01-31T13:45:21.559Z,99268.25
2019-01-31T13:46:29.018Z,99262.26
2019-01-31T13:47:35.883Z,99260.05
2019-01-31T13:48:42.727Z,99261.69
2019-01-31T13:49:49.443Z,99262.10
2019-01-31T13:50:56.116Z,99264.63
2019-01-31T13:52:02.982Z,99263.83
2019-01-31T13:53:10.752Z,99259.23
2019-01-31T13:54:17.428Z,99266.01
2019-01-31T13:55:27.999Z,99261.48
2019-01-31T13:56:44.952Z,99267.80
2019-01-31T13:57:43.096Z,99260.19
2019-01-31T13:58:49.793Z,99264.96
2019-01-31T13:59:56.458Z,99264.06
2019-01-31T14:01:03.544Z,99266.08
2019-01-31T14:02:10.358Z,99258.42
2019-01-31T14:03:17.494Z,99266.01
2019-01-31T14:04:24.162Z,99263.05
2019-01-31T14:05:31.293Z,99266.97
2019-01-31T14:06:38.303Z,99266.19
2019-01-31T14:07:45.022Z,99267.02
2019-01-31T14:08:52.023Z,99269.10
2019-01-31T14:09:58.741Z,99267.84
2019-01-31T14:11:05.862Z,99269.44
2019-01-31T14:12:12.606Z,99272.11
2019-01-31T14:13:19.838Z,99268.77
2019-01-31T14:14:26.896Z,99268.81
2019-01-31T14:15:36.703Z,99268.05
2019-01-31T14:16:47.791Z,99270.25
2019-01-31T14:17:52.662Z,99268.50
2019-01-31T14:18:59.885Z,99269.42
2019-01-31T14:20:10.405Z,99270.35
2019-01-31T14:21:17.094Z,99267.00
2019-01-31T14:22:24.156Z,99265.88
2019-01-31T14:23:30.838Z,99266.60
2019-01-31T14:24:37.867Z,99261.37
2019-01-31T14:25:44.577Z,99268.48
2019-01-31T14:26:51.284Z,99267.98
2019-01-31T14:27:57.943Z,99265.46
2019-01-31T14:29:05.321Z,99271.24
2019-01-31T14:30:26.706Z,99270.45
2019-01-31T14:31:33.474Z,99277.95
2019-01-31T14:32:40.635Z,99273.05
2019-01-31T14:33:47.333Z,99274.78
2019-01-31T14:34:53.995Z,99269.27
2019-01-31T14:36:02.847Z,99271.73
2019-01-31T14:37:10.316Z,99273.89
2019-01-31T14:38:17.250Z,99275.88
2019-01-31T14:39:24.566Z,99275.22
2019-01-31T14:40:31.605Z,99278.61
2019-01-31T14:41:38.284Z,99276.00
2019-01-31T14:43:05.409Z,99273.56
2019-01-31T14:44:20.220Z,99274.11
2019-01-31T14:45:20.474Z,99275.39
2019-01-31T14:46:27.191Z,99277.08
2019-01-31T14:47:33.876Z,99273.34
2019-01-31T14:48:41.047Z,99273.31
2019-01-31T14:49:47.787Z,99274.96
2019-01-31T14:50:54.491Z,99271.55
2019-01-31T14:52:01.253Z,99273.14
2019-01-31T14:53:08.645Z,99274.42
2019-01-31T14:54:15.701Z,99274.78
2019-01-31T14:55:22.531Z,99275.09
2019-01-31T14:56:29.583Z,99274.25
2019-01-31T14:57:36.622Z,99273.39
2019-01-31T14:58:43.380Z,99276.59
2019-01-31T14:59:50.271Z,99277.45
2019-01-31T15:00:56.917Z,99276.98
2019-01-31T15:02:03.914Z,99279.47
2019-01-31T15:03:11.046Z,99277.77
2019-01-31T15:04:17.845Z,99275.63
2019-01-31T15:05:24.892Z,99281.14
2019-01-31T15:06:32.656Z,99278.61
2019-01-31T15:07:39.624Z,99285.97
2019-01-31T15:08:46.346Z,99281.72
2019-01-31T15:09:53.062Z,99284.37
2019-01-31T15:10:59.732Z,99285.73
2019-01-31T15:12:06.628Z,99281.62
2019-01-31T15:13:13.669Z,99282.43
2019-01-31T15:14:31.222Z,99279.89
2019-01-31T15:15:28.761Z,99280.24
2019-01-31T15:16:35.412Z,99279.67
2019-01-31T15:17:42.388Z,99275.84
2019-01-31T15:18:49.167Z,99274.95
2019-01-31T15:19:56.369Z,99269.78
2019-01-31T15:21:03.119Z,99269.30
2019-01-31T15:22:09.772Z,99268.00
2019-01-31T15:23:19.289Z,99270.08
2019-01-31T15:24:25.635Z,99270.48
2019-01-31T15:25:32.683Z,99266.27
2019-01-31T15:26:39.416Z,99269.56
2019-01-31T15:27:46.135Z,99265.62
2019-01-31T15:28:52.918Z,99272.37
2019-01-31T15:30:00.241Z,99267.70
2019-01-31T15:31:06.942Z,99267.24
2019-01-31T15:32:13.624Z,99266.86
2019-01-31T15:33:20.790Z,99269.75
2019-01-31T15:34:27.839Z,99269.38
2019-01-31T15:35:35.051Z,99265.94
2019-01-31T15:36:41.814Z,99266.38
2019-01-31T15:37:48.495Z,99267.55
2019-01-31T15:38:55.526Z,99275.09
2019-01-31T15:40:02.214Z,99270.00
2019-01-31T15:41:08.873Z,99273.83
2019-01-31T15:42:15.790Z,99269.40
2019-01-31T15:43:22.611Z,99268.65
2019-01-31T15:44:29.461Z,99265.28
2019-01-31T15:45:36.738Z,99262.73
2019-01-31T15:46:43.802Z,99262.19
2019-01-31T15:47:50.643Z,99259.30
2019-01-31T15:48:57.362Z,99256.77
2019-01-31T15:50:05.008Z,99254.72
2019-01-31T15:51:11.739Z,99251.27
2019-01-31T15:52:18.475Z,99254.70
2019-01-31T15:53:25.164Z,99255.55
2019-01-31T15:54:31.832Z,99251.30
2019-01-31T15:55:39.308Z,99250.89
2019-01-31T15:56:46.196Z,99251.69
2019-01-31T15:57:53.506Z,99252.98
2019-01-31T15:59:00.244Z,99249.64
2019-01-31T16:00:29.172Z,99252.98
2019-01-31T16:01:36.350Z,99252.16
2019-01-31T16:02:43.070Z,99247.16
2019-01-31T16:03:49.767Z,99251.75
2019-01-31T16:04:56.557Z,99252.08
2019-01-31T16:06:03.310Z,99243.36